sensor_id;sensor_type;location;lat;lon;timestamp;pressure;altitude;pressure_sealevel;temperature;humidity
79376;BME280;68846;53.150;18.136;2024-01-15T00:02:24;98671.17;;;1.21;83.04
79376;BME280;68846;53.150;18.136;2024-01-15T00:04:51;98659.38;;;1.21;83.33
79376;BME280;68846;53.150;18.136;2024-01-15T00:07:19;98660.96;;;1.23;83.07
79376;BME280;68846;53.150;18.136;2024-01-15T00:09:47;98655.94;;;1.24;82.98
79376;BME280;68846;53.150;18.136;2024-01-15T00:12:15;98649.17;;;1.24;83.07
79376;BME280;68846;53.150;18.136;2024-01-15T00:14:42;98643.95;;;1.22;83.46
79376;BME280;68846;53.150;18.136;2024-01-15T00:17:10;98639.10;;;1.22;83.14
79376;BME280;68846;53.150;18.136;2024-01-15T00:19:38;98638.27;;;1.24;83.20
79376;BME280;68846;53.150;18.136;2024-01-15T00:22:06;98634.10;;;1.25;83.26
79376;BME280;68846;53.150;18.136;2024-01-15T00:24:34;98638.12;;;1.26;83.44
79376;BME280;68846;53.150;18.136;2024-01-15T00:27:02;98634.27;;;1.25;83.23
79376;BME280;68846;53.150;18.136;2024-01-15T00:29:32;98627.32;;;1.23;83.33
79376;BME280;68846;53.150;18.136;2024-01-15T00:32:00;98621.55;;;1.20;83.45
79376;BME280;68846;53.150;18.136;2024-01-15T00:34:28;98616.84;;;1.18;83.31
79376;BME280;68846;53.150;18.136;2024-01-15T00:36:56;98616.63;;;1.15;83.67
79376;BME280;68846;53.150;18.136;2024-01-15T00:39:23;98604.24;;;1.09;83.72
79376;BME280;68846;53.150;18.136;2024-01-15T00:41:51;98604.53;;;1.07;83.41
79376;BME280;68846;53.150;18.136;2024-01-15T00:44:19;98595.86;;;1.06;83.61
79376;BME280;68846;53.150;18.136;2024-01-15T00:46:47;98596.73;;;1.07;83.97
79376;BME280;68846;53.150;18.136;2024-01-15T00:49:15;98592.91;;;1.07;83.80
79376;BME280;68846;53.150;18.136;2024-01-15T00:51:43;98586.00;;;1.08;83.99
79376;BME280;68846;53.150;18.136;2024-01-15T00:54:11;98587.59;;;1.09;84.07
79376;BME280;68846;53.150;18.136;2024-01-15T00:56:39;98576.85;;;1.09;83.86
79376;BME280;68846;53.150;18.136;2024-01-15T00:59:08;98571.13;;;1.10;83.68
79376;BME280;68846;53.150;18.136;2024-01-15T01:01:37;98566.27;;;1.10;83.76
79376;BME280;68846;53.150;18.136;2024-01-15T01:04:05;98565.24;;;1.10;83.77
79376;BME280;68846;53.150;18.136;2024-01-15T01:06:58;98557.61;;;1.10;83.88
79376;BME280;68846;53.150;18.136;2024-01-15T01:09:26;98553.63;;;1.10;83.86
79376;BME280;68846;53.150;18.136;2024-01-15T01:11:56;98544.79;;;1.10;83.96
79376;BME280;68846;53.150;18.136;2024-01-15T01:14:24;98544.96;;;1.11;84.05
79376;BME280;68846;53.150;18.136;2024-01-15T01:16:52;98540.13;;;1.13;83.79
79376;BME280;68846;53.150;18.136;2024-01-15T01:19:20;98533.89;;;1.13;83.78
79376;BME280;68846;53.150;18.136;2024-01-15T01:21:48;98529.92;;;1.14;83.69
79376;BME280;68846;53.150;18.136;2024-01-15T01:24:16;98528.39;;;1.15;83.67
79376;BME280;68846;53.150;18.136;2024-01-15T01:26:44;98525.80;;;1.16;83.67
79376;BME280;68846;53.150;18.136;2024-01-15T01:33:02;98516.26;;;1.15;83.85
79376;BME280;68846;53.150;18.136;2024-01-15T01:35:30;98515.05;;;1.16;83.68
79376;BME280;68846;53.150;18.136;2024-01-15T01:37:58;98511.23;;;1.16;83.87
79376;BME280;68846;53.150;18.136;2024-01-15T01:44:34;98499.96;;;1.15;83.88
79376;BME280;68846;53.150;18.136;2024-01-15T01:50:45;98490.91;;;1.14;83.74
79376;BME280;68846;53.150;18.136;2024-01-15T01:53:13;98482.23;;;1.13;83.51
79376;BME280;68846;53.150;18.136;2024-01-15T01:55:41;98474.26;;;1.13;83.60
79376;BME280;68846;53.150;18.136;2024-01-15T02:01:54;98468.88;;;1.13;83.49
79376;BME280;68846;53.150;18.136;2024-01-15T02:13:50;98442.69;;;1.11;83.61
79376;BME280;68846;53.150;18.136;2024-01-15T02:16:18;98447.73;;;1.12;83.62
79376;BME280;68846;53.150;18.136;2024-01-15T02:22:30;98435.77;;;1.13;83.72
79376;BME280;68846;53.150;18.136;2024-01-15T02:25:23;98431.06;;;1.10;83.80
79376;BME280;68846;53.150;18.136;2024-01-15T02:27:51;98427.23;;;1.08;83.76
79376;BME280;68846;53.150;18.136;2024-01-15T02:35:17;98415.89;;;1.03;83.85
79376;BME280;68846;53.150;18.136;2024-01-15T02:37:45;98413.77;;;1.00;83.43
79376;BME280;68846;53.150;18.136;2024-01-15T02:40:13;98411.51;;;0.99;83.54
79376;BME280;68846;53.150;18.136;2024-01-15T02:43:31;98407.01;;;0.99;83.54
79376;BME280;68846;53.150;18.136;2024-01-15T02:45:59;98413.95;;;1.00;83.91
79376;BME280;68846;53.150;18.136;2024-01-15T02:48:27;98402.51;;;1.00;83.62
79376;BME280;68846;53.150;18.136;2024-01-15T02:50:55;98397.13;;;1.01;83.60
79376;BME280;68846;53.150;18.136;2024-01-15T03:03:15;98380.09;;;1.08;83.12
79376;BME280;68846;53.150;18.136;2024-01-15T03:05:46;98379.58;;;1.10;83.23
79376;BME280;68846;53.150;18.136;2024-01-15T03:11:57;98363.80;;;1.09;83.06
79376;BME280;68846;53.150;18.136;2024-01-15T03:18:58;98355.39;;;1.01;83.11
79376;BME280;68846;53.150;18.136;2024-01-15T03:21:25;98349.11;;;0.98;83.29
79376;BME280;68846;53.150;18.136;2024-01-15T03:23:53;98338.66;;;0.94;83.44
79376;BME280;68846;53.150;18.136;2024-01-15T03:26:21;98341.41;;;0.92;83.86
79376;BME280;68846;53.150;18.136;2024-01-15T03:28:49;98335.85;;;0.90;83.54
79376;BME280;68846;53.150;18.136;2024-01-15T03:31:17;98334.11;;;0.90;83.98
79376;BME280;68846;53.150;18.136;2024-01-15T03:33:45;98331.52;;;0.91;83.75
79376;BME280;68846;53.150;18.136;2024-01-15T03:36:13;98328.76;;;0.91;84.05
79376;BME280;68846;53.150;18.136;2024-01-15T03:39:34;98323.23;;;0.92;83.90
79376;BME280;68846;53.150;18.136;2024-01-15T03:42:03;98319.44;;;0.95;83.85
79376;BME280;68846;53.150;18.136;2024-01-15T03:49:06;98313.33;;;0.92;84.07
79376;BME280;68846;53.150;18.136;2024-01-15T03:56:29;98297.23;;;0.78;84.46
79376;BME280;68846;53.150;18.136;2024-01-15T03:59:00;98297.37;;;0.74;84.30
79376;BME280;68846;53.150;18.136;2024-01-15T04:01:28;98298.35;;;0.69;84.68
79376;BME280;68846;53.150;18.136;2024-01-15T04:03:57;98297.42;;;0.65;84.94
79376;BME280;68846;53.150;18.136;2024-01-15T04:06:25;98290.64;;;0.62;84.93
79376;BME280;68846;53.150;18.136;2024-01-15T04:09:20;98290.65;;;0.62;84.84
79376;BME280;68846;53.150;18.136;2024-01-15T04:11:48;98279.39;;;0.63;85.05
79376;BME280;68846;53.150;18.136;2024-01-15T04:14:16;98276.27;;;0.63;84.84
79376;BME280;68846;53.150;18.136;2024-01-15T04:16:49;98272.30;;;0.64;85.01
79376;BME280;68846;53.150;18.136;2024-01-15T04:19:17;98265.20;;;0.65;84.93
79376;BME280;68846;53.150;18.136;2024-01-15T04:25:33;98272.66;;;0.66;85.23
79376;BME280;68846;53.150;18.136;2024-01-15T04:33:00;98268.13;;;0.62;85.31
79376;BME280;68846;53.150;18.136;2024-01-15T04:35:28;98270.70;;;0.60;85.21
79376;BME280;68846;53.150;18.136;2024-01-15T04:38:20;98261.84;;;0.60;84.91
79376;BME280;68846;53.150;18.136;2024-01-15T04:45:44;98240.95;;;0.63;84.02
79376;BME280;68846;53.150;18.136;2024-01-15T04:48:12;98245.60;;;0.61;83.93
79376;BME280;68846;53.150;18.136;2024-01-15T04:50:45;98242.27;;;0.58;83.83
79376;BME280;68846;53.150;18.136;2024-01-15T04:53:14;98246.41;;;0.56;83.63
79376;BME280;68846;53.150;18.136;2024-01-15T05:00:16;98237.66;;;0.48;83.98
79376;BME280;68846;53.150;18.136;2024-01-15T05:02:44;98233.67;;;0.48;84.47
79376;BME280;68846;53.150;18.136;2024-01-15T05:05:12;98235.41;;;0.48;84.42
79376;BME280;68846;53.150;18.136;2024-01-15T05:08:07;98236.81;;;0.50;84.42
79376;BME280;68846;53.150;18.136;2024-01-15T05:10:35;98242.02;;;0.51;84.52
79376;BME280;68846;53.150;18.136;2024-01-15T05:13:03;98245.66;;;0.52;84.09
79376;BME280;68846;53.150;18.136;2024-01-15T05:15:31;98240.80;;;0.51;84.29
79376;BME280;68846;53.150;18.136;2024-01-15T05:17:58;98243.75;;;0.51;84.30
79376;BME280;68846;53.150;18.136;2024-01-15T05:20:26;98248.42;;;0.51;83.89
79376;BME280;68846;53.150;18.136;2024-01-15T05:22:54;98244.61;;;0.51;83.59
79376;BME280;68846;53.150;18.136;2024-01-15T05:29:04;98247.04;;;0.51;83.12
79376;BME280;68846;53.150;18.136;2024-01-15T05:31:32;98240.45;;;0.50;83.08
79376;BME280;68846;53.150;18.136;2024-01-15T05:34:00;98240.42;;;0.49;83.00
79376;BME280;68846;53.150;18.136;2024-01-15T05:36:28;98248.74;;;0.48;82.93
79376;BME280;68846;53.150;18.136;2024-01-15T05:38:58;98246.27;;;0.45;82.95
79376;BME280;68846;53.150;18.136;2024-01-15T05:41:25;98247.80;;;0.43;82.71
79376;BME280;68846;53.150;18.136;2024-01-15T05:43:54;98246.39;;;0.41;82.76
79376;BME280;68846;53.150;18.136;2024-01-15T05:46:22;98241.00;;;0.39;82.79
79376;BME280;68846;53.150;18.136;2024-01-15T05:48:49;98242.38;;;0.36;82.65
79376;BME280;68846;53.150;18.136;2024-01-15T05:51:17;98240.11;;;0.36;82.72
79376;BME280;68846;53.150;18.136;2024-01-15T05:53:45;98236.48;;;0.37;82.88
79376;BME280;68846;53.150;18.136;2024-01-15T05:56:13;98234.77;;;0.37;82.89
79376;BME280;68846;53.150;18.136;2024-01-15T05:58:41;98237.20;;;0.40;82.97
79376;BME280;68846;53.150;18.136;2024-01-15T06:01:09;98233.76;;;0.42;82.83
79376;BME280;68846;53.150;18.136;2024-01-15T06:03:37;98227.73;;;0.43;82.87
79376;BME280;68846;53.150;18.136;2024-01-15T06:06:08;98236.40;;;0.45;82.37
79376;BME280;68846;53.150;18.136;2024-01-15T06:08:37;98232.77;;;0.45;82.20
79376;BME280;68846;53.150;18.136;2024-01-15T06:11:06;98226.71;;;0.46;82.51
79376;BME280;68846;53.150;18.136;2024-01-15T06:13:34;98219.45;;;0.47;82.24
79376;BME280;68846;53.150;18.136;2024-01-15T06:16:02;98220.84;;;0.48;81.93
79376;BME280;68846;53.150;18.136;2024-01-15T06:18:31;98225.17;;;0.48;82.23
79376;BME280;68846;53.150;18.136;2024-01-15T06:20:59;98228.15;;;0.49;82.17
79376;BME280;68846;53.150;18.136;2024-01-15T06:23:27;98226.42;;;0.50;82.26
79376;BME280;68846;53.150;18.136;2024-01-15T06:25:55;98222.60;;;0.49;82.36
79376;BME280;68846;53.150;18.136;2024-01-15T06:28:22;98229.88;;;0.49;82.52
79376;BME280;68846;53.150;18.136;2024-01-15T06:30:50;98226.25;;;0.49;82.53
79376;BME280;68846;53.150;18.136;2024-01-15T06:33:18;98225.52;;;0.48;82.64
79376;BME280;68846;53.150;18.136;2024-01-15T06:35:46;98223.63;;;0.48;82.56
79376;BME280;68846;53.150;18.136;2024-01-15T06:38:14;98221.36;;;0.48;82.55
79376;BME280;68846;53.150;18.136;2024-01-15T06:40:42;98215.84;;;0.48;82.50
79376;BME280;68846;53.150;18.136;2024-01-15T06:43:14;98214.97;;;0.48;82.52
79376;BME280;68846;53.150;18.136;2024-01-15T06:45:47;98218.97;;;0.49;82.60
79376;BME280;68846;53.150;18.136;2024-01-15T06:48:15;98216.72;;;0.50;82.43
79376;BME280;68846;53.150;18.136;2024-01-15T06:50:44;98208.77;;;0.52;82.39
79376;BME280;68846;53.150;18.136;2024-01-15T06:53:12;98215.36;;;0.53;82.39
79376;BME280;68846;53.150;18.136;2024-01-15T06:55:40;98209.98;;;0.53;82.16
79376;BME280;68846;53.150;18.136;2024-01-15T06:58:08;98204.96;;;0.52;82.21
79376;BME280;68846;53.150;18.136;2024-01-15T07:00:35;98202.88;;;0.51;81.75
79376;BME280;68846;53.150;18.136;2024-01-15T07:03:03;98198.00;;;0.48;81.92
79376;BME280;68846;53.150;18.136;2024-01-15T07:06:22;98202.30;;;0.46;82.14
79376;BME280;68846;53.150;18.136;2024-01-15T07:08:50;98201.58;;;0.42;81.94
79376;BME280;68846;53.150;18.136;2024-01-15T07:11:20;98195.17;;;0.43;82.20
79376;BME280;68846;53.150;18.136;2024-01-15T07:13:49;98198.45;;;0.42;82.12
79376;BME280;68846;53.150;18.136;2024-01-15T07:16:17;98203.30;;;0.43;82.14
79376;BME280;68846;53.150;18.136;2024-01-15T07:18:45;98208.35;;;0.44;82.21
79376;BME280;68846;53.150;18.136;2024-01-15T07:21:13;98209.04;;;0.44;82.11
79376;BME280;68846;53.150;18.136;2024-01-15T07:23:41;98210.78;;;0.45;81.79
79376;BME280;68846;53.150;18.136;2024-01-15T07:26:09;98211.30;;;0.45;81.72
79376;BME280;68846;53.150;18.136;2024-01-15T07:28:37;98208.02;;;0.46;82.30
79376;BME280;68846;53.150;18.136;2024-01-15T07:41:00;98214.06;;;0.44;83.33
79376;BME280;68846;53.150;18.136;2024-01-15T07:44:18;98214.05;;;0.43;83.37
79376;BME280;68846;53.150;18.136;2024-01-15T07:46:46;98206.79;;;0.44;83.51
79376;BME280;68846;53.150;18.136;2024-01-15T07:52:57;98208.70;;;0.45;83.28
79376;BME280;68846;53.150;18.136;2024-01-15T07:55:25;98202.99;;;0.47;83.07
79376;BME280;68846;53.150;18.136;2024-01-15T07:57:54;98208.58;;;0.49;83.31
79376;BME280;68846;53.150;18.136;2024-01-15T08:05:22;98204.13;;;0.54;82.73
79376;BME280;68846;53.150;18.136;2024-01-15T08:07:50;98207.27;;;0.55;82.64
79376;BME280;68846;53.150;18.136;2024-01-15T08:10:18;98202.24;;;0.56;82.58
79376;BME280;68846;53.150;18.136;2024-01-15T08:16:29;98195.69;;;0.59;81.84
79376;BME280;68846;53.150;18.136;2024-01-15T08:18:57;98197.96;;;0.61;82.15
79376;BME280;68846;53.150;18.136;2024-01-15T08:21:25;98194.68;;;0.61;81.54
79376;BME280;68846;53.150;18.136;2024-01-15T08:23:53;98196.94;;;0.62;81.97
79376;BME280;68846;53.150;18.136;2024-01-15T08:26:21;98193.30;;;0.62;81.87
79376;BME280;68846;53.150;18.136;2024-01-15T08:28:49;98192.95;;;0.62;81.47
79376;BME280;68846;53.150;18.136;2024-01-15T08:36:20;98183.37;;;0.56;82.04
79376;BME280;68846;53.150;18.136;2024-01-15T08:38:49;98185.08;;;0.55;82.17
79376;BME280;68846;53.150;18.136;2024-01-15T08:41:17;98192.86;;;0.54;81.99
79376;BME280;68846;53.150;18.136;2024-01-15T08:43:46;98191.66;;;0.54;81.75
79376;BME280;68846;53.150;18.136;2024-01-15T08:46:14;98180.27;;;0.57;81.61
79376;BME280;68846;53.150;18.136;2024-01-15T08:48:43;98184.98;;;0.62;81.25
79376;BME280;68846;53.150;18.136;2024-01-15T08:51:10;98183.45;;;0.66;81.38
79376;BME280;68846;53.150;18.136;2024-01-15T08:53:38;98183.49;;;0.70;80.80
79376;BME280;68846;53.150;18.136;2024-01-15T08:56:07;98183.73;;;0.75;80.45
79376;BME280;68846;53.150;18.136;2024-01-15T08:58:36;98174.95;;;0.79;80.52
79376;BME280;68846;53.150;18.136;2024-01-15T09:01:03;98187.44;;;0.83;80.09
79376;BME280;68846;53.150;18.136;2024-01-15T09:03:32;98178.64;;;0.85;80.25
79376;BME280;68846;53.150;18.136;2024-01-15T09:06:01;98179.34;;;0.87;80.17
79376;BME280;68846;53.150;18.136;2024-01-15T09:08:29;98184.89;;;0.88;80.31
79376;BME280;68846;53.150;18.136;2024-01-15T09:10:57;98188.52;;;0.88;79.85
79376;BME280;68846;53.150;18.136;2024-01-15T09:13:26;98177.95;;;0.86;80.15
79376;BME280;68846;53.150;18.136;2024-01-15T09:15:53;98177.61;;;0.86;80.16
79376;BME280;68846;53.150;18.136;2024-01-15T09:18:22;98172.76;;;0.86;80.19
79376;BME280;68846;53.150;18.136;2024-01-15T09:20:51;98172.20;;;0.83;80.41
79376;BME280;68846;53.150;18.136;2024-01-15T09:23:19;98179.80;;;0.81;80.70
79376;BME280;68846;53.150;18.136;2024-01-15T09:25:47;98173.73;;;0.80;80.56
79376;BME280;68846;53.150;18.136;2024-01-15T09:28:16;98165.77;;;0.81;80.90
79376;BME280;68846;53.150;18.136;2024-01-15T09:30:44;98164.73;;;0.80;80.63
79376;BME280;68846;53.150;18.136;2024-01-15T09:33:12;98156.76;;;0.79;80.73
79376;BME280;68846;53.150;18.136;2024-01-15T09:35:40;98158.84;;;0.80;80.92
79376;BME280;68846;53.150;18.136;2024-01-15T09:38:08;98153.64;;;0.83;80.85
79376;BME280;68846;53.150;18.136;2024-01-15T09:40:38;98153.67;;;0.84;80.80
79376;BME280;68846;53.150;18.136;2024-01-15T09:43:06;98147.98;;;0.88;81.01
79376;BME280;68846;53.150;18.136;2024-01-15T09:45:34;98146.96;;;0.91;81.02
79376;BME280;68846;53.150;18.136;2024-01-15T09:48:02;98153.23;;;0.92;80.79
79376;BME280;68846;53.150;18.136;2024-01-15T09:50:30;98152.36;;;0.94;80.26
79376;BME280;68846;53.150;18.136;2024-01-15T09:53:00;98146.52;;;0.98;80.49
79376;BME280;68846;53.150;18.136;2024-01-15T09:55:29;98146.00;;;1.00;80.60
79376;BME280;68846;53.150;18.136;2024-01-15T09:57:57;98141.52;;;1.02;80.23
79376;BME280;68846;53.150;18.136;2024-01-15T10:00:27;98150.70;;;1.02;79.88
79376;BME280;68846;53.150;18.136;2024-01-15T10:02:56;98160.21;;;0.99;79.56
79376;BME280;68846;53.150;18.136;2024-01-15T10:05:24;98163.29;;;0.95;80.61
79376;BME280;68846;53.150;18.136;2024-01-15T10:07:53;98168.43;;;0.88;81.31
79376;BME280;68846;53.150;18.136;2024-01-15T10:10:22;98156.39;;;0.78;82.09
79376;BME280;68846;53.150;18.136;2024-01-15T10:12:50;98161.67;;;0.70;82.34
79376;BME280;68846;53.150;18.136;2024-01-15T10:15:18;98165.23;;;0.61;82.55
79376;BME280;68846;53.150;18.136;2024-01-15T10:17:50;98174.02;;;0.57;82.94
79376;BME280;68846;53.150;18.136;2024-01-15T10:20:18;98169.90;;;0.60;82.68
79376;BME280;68846;53.150;18.136;2024-01-15T10:22:47;98169.61;;;0.66;82.33
79376;BME280;68846;53.150;18.136;2024-01-15T10:25:15;98166.55;;;0.72;81.72
79376;BME280;68846;53.150;18.136;2024-01-15T10:27:43;98165.41;;;0.80;81.80
79376;BME280;68846;53.150;18.136;2024-01-15T10:30:12;98169.13;;;0.89;81.01
79376;BME280;68846;53.150;18.136;2024-01-15T10:32:41;98160.19;;;0.95;81.16
79376;BME280;68846;53.150;18.136;2024-01-15T10:35:10;98161.08;;;0.99;80.67
79376;BME280;68846;53.150;18.136;2024-01-15T10:37:38;98163.89;;;1.03;80.66
79376;BME280;68846;53.150;18.136;2024-01-15T10:40:06;98162.34;;;1.04;79.33
79376;BME280;68846;53.150;18.136;2024-01-15T10:42:34;98152.98;;;1.05;78.72
79376;BME280;68846;53.150;18.136;2024-01-15T10:45:05;98144.70;;;1.09;79.38
79376;BME280;68846;53.150;18.136;2024-01-15T10:47:36;98151.66;;;1.14;79.68
79376;BME280;68846;53.150;18.136;2024-01-15T10:50:06;98153.59;;;1.15;79.29
79376;BME280;68846;53.150;18.136;2024-01-15T10:52:36;98156.54;;;1.15;78.97
79376;BME280;68846;53.150;18.136;2024-01-15T10:55:05;98158.94;;;1.13;79.04
79376;BME280;68846;53.150;18.136;2024-01-15T10:57:38;98147.67;;;1.14;79.57
79376;BME280;68846;53.150;18.136;2024-01-15T11:00:07;98149.45;;;1.18;79.40
79376;BME280;68846;53.150;18.136;2024-01-15T11:02:37;98145.84;;;1.23;79.29
79376;BME280;68846;53.150;18.136;2024-01-15T11:05:05;98142.42;;;1.28;79.14
79376;BME280;68846;53.150;18.136;2024-01-15T11:07:33;98143.63;;;1.30;79.22
79376;BME280;68846;53.150;18.136;2024-01-15T11:10:04;98146.07;;;1.31;79.25
79376;BME280;68846;53.150;18.136;2024-01-15T11:12:31;98153.88;;;1.31;78.89
79376;BME280;68846;53.150;18.136;2024-01-15T11:15:04;98151.61;;;1.28;79.21
79376;BME280;68846;53.150;18.136;2024-01-15T11:17:58;98144.30;;;1.25;79.74
79376;BME280;68846;53.150;18.136;2024-01-15T11:20:29;98149.10;;;1.18;80.72
79376;BME280;68846;53.150;18.136;2024-01-15T11:22:58;98155.98;;;1.11;80.88
79376;BME280;68846;53.150;18.136;2024-01-15T11:25:35;98161.79;;;1.00;81.09
79376;BME280;68846;53.150;18.136;2024-01-15T11:28:05;98164.80;;;0.89;81.90
79376;BME280;68846;53.150;18.136;2024-01-15T11:30:33;98156.73;;;0.77;82.46
79376;BME280;68846;53.150;18.136;2024-01-15T11:33:04;98150.77;;;0.70;82.52
79376;BME280;68846;53.150;18.136;2024-01-15T11:35:50;98154.90;;;0.66;83.04
79376;BME280;68846;53.150;18.136;2024-01-15T11:38:27;98160.58;;;0.64;82.94
79376;BME280;68846;53.150;18.136;2024-01-15T11:40:56;98158.83;;;0.63;83.19
79376;BME280;68846;53.150;18.136;2024-01-15T11:43:26;98155.55;;;0.63;83.28
79376;BME280;68846;53.150;18.136;2024-01-15T11:45:54;98150.40;;;0.67;83.20
79376;BME280;68846;53.150;18.136;2024-01-15T11:48:22;98151.10;;;0.69;83.25
79376;BME280;68846;53.150;18.136;2024-01-15T11:50:55;98145.56;;;0.71;82.92
79376;BME280;68846;53.150;18.136;2024-01-15T11:53:45;98145.56;;;0.70;82.70
79376;BME280;68846;53.150;18.136;2024-01-15T11:56:16;98135.57;;;0.75;82.29
79376;BME280;68846;53.150;18.136;2024-01-15T11:58:45;98137.34;;;0.78;82.09
79376;BME280;68846;53.150;18.136;2024-01-15T12:01:13;98131.45;;;0.80;81.27
79376;BME280;68846;53.150;18.136;2024-01-15T12:03:41;98136.15;;;0.82;80.32
79376;BME280;68846;53.150;18.136;2024-01-15T12:06:09;98141.36;;;0.84;79.89
79376;BME280;68846;53.150;18.136;2024-01-15T12:08:37;98136.52;;;0.84;79.84
79376;BME280;68846;53.150;18.136;2024-01-15T12:11:10;98139.47;;;0.84;78.71
79376;BME280;68846;53.150;18.136;2024-01-15T12:13:41;98137.20;;;0.83;78.99
79376;BME280;68846;53.150;18.136;2024-01-15T12:16:09;98143.81;;;0.86;78.54
79376;BME280;68846;53.150;18.136;2024-01-15T12:18:37;98165.14;;;0.88;76.88
79376;BME280;68846;53.150;18.136;2024-01-15T12:21:09;98165.88;;;0.92;77.79
79376;BME280;68846;53.150;18.136;2024-01-15T12:23:37;98163.75;;;0.87;77.10
79376;BME280;68846;53.150;18.136;2024-01-15T12:26:05;98162.06;;;0.74;76.95
79376;BME280;68846;53.150;18.136;2024-01-15T12:28:32;98166.60;;;0.60;77.31
79376;BME280;68846;53.150;18.136;2024-01-15T12:31:02;98163.89;;;0.48;77.33
79376;BME280;68846;53.150;18.136;2024-01-15T12:33:34;98163.97;;;0.39;77.44
79376;BME280;68846;53.150;18.136;2024-01-15T12:36:03;98167.39;;;0.37;77.45
79376;BME280;68846;53.150;18.136;2024-01-15T12:38:32;98166.49;;;0.34;77.34
79376;BME280;68846;53.150;18.136;2024-01-15T12:41:00;98172.06;;;0.36;77.46
79376;BME280;68846;53.150;18.136;2024-01-15T12:43:29;98176.42;;;0.37;77.45
79376;BME280;68846;53.150;18.136;2024-01-15T12:46:00;98172.95;;;0.38;76.69
79376;BME280;68846;53.150;18.136;2024-01-15T12:48:28;98174.00;;;0.41;77.02
79376;BME280;68846;53.150;18.136;2024-01-15T12:50:56;98173.02;;;0.44;77.30
79376;BME280;68846;53.150;18.136;2024-01-15T12:53:24;98170.46;;;0.48;77.38
79376;BME280;68846;53.150;18.136;2024-01-15T12:55:51;98170.33;;;0.52;77.68
79376;BME280;68846;53.150;18.136;2024-01-15T12:58:19;98172.45;;;0.55;77.53
79376;BME280;68846;53.150;18.136;2024-01-15T13:00:47;98172.80;;;0.55;76.89
79376;BME280;68846;53.150;18.136;2024-01-15T13:03:16;98174.66;;;0.51;76.65
79376;BME280;68846;53.150;18.136;2024-01-15T13:05:47;98176.01;;;0.49;76.32
79376;BME280;68846;53.150;18.136;2024-01-15T13:08:14;98177.36;;;0.47;76.50
79376;BME280;68846;53.150;18.136;2024-01-15T13:10:42;98180.48;;;0.46;75.66
79376;BME280;68846;53.150;18.136;2024-01-15T13:13:11;98182.07;;;0.48;75.80
79376;BME280;68846;53.150;18.136;2024-01-15T13:15:39;98179.67;;;0.51;75.61
79376;BME280;68846;53.150;18.136;2024-01-15T13:18:07;98178.34;;;0.55;75.55
79376;BME280;68846;53.150;18.136;2024-01-15T13:20:34;98183.55;;;0.57;74.55
79376;BME280;68846;53.150;18.136;2024-01-15T13:23:03;98178.02;;;0.59;75.04
79376;BME280;68846;53.150;18.136;2024-01-15T13:25:32;98179.73;;;0.58;73.68
79376;BME280;68846;53.150;18.136;2024-01-15T13:28:04;98177.83;;;0.56;73.46
79376;BME280;68846;53.150;18.136;2024-01-15T13:30:32;98181.59;;;0.53;74.82
79376;BME280;68846;53.150;18.136;2024-01-15T13:33:00;98182.27;;;0.49;74.62
79376;BME280;68846;53.150;18.136;2024-01-15T13:35:32;98177.52;;;0.44;74.51
79376;BME280;68846;53.150;18.136;2024-01-15T13:38:00;98181.13;;;0.42;74.98
79376;BME280;68846;53.150;18.136;2024-01-15T13:40:28;98191.67;;;0.40;75.27
79376;BME280;68846;53.150;18.136;2024-01-15T13:42:55;98189.75;;;0.39;75.46
79376;BME280;68846;53.150;18.136;2024-01-15T13:45:23;98193.92;;;0.41;75.58
79376;BME280;68846;53.150;18.136;2024-01-15T13:47:51;98195.99;;;0.40;75.20
79376;BME280;68846;53.150;18.136;2024-01-15T13:50:19;98191.66;;;0.40;75.82
79376;BME280;68846;53.150;18.136;2024-01-15T13:52:48;98192.54;;;0.41;75.99
79376;BME280;68846;53.150;18.136;2024-01-15T13:55:16;98188.90;;;0.41;75.21
79376;BME280;68846;53.150;18.136;2024-01-15T13:57:46;98206.21;;;0.40;74.79
79376;BME280;68846;53.150;18.136;2024-01-15T14:00:15;98205.16;;;0.37;75.10
79376;BME280;68846;53.150;18.136;2024-01-15T14:02:47;98213.06;;;0.35;75.33
79376;BME280;68846;53.150;18.136;2024-01-15T14:05:15;98216.51;;;0.32;75.02
79376;BME280;68846;53.150;18.136;2024-01-15T14:07:44;98213.91;;;0.31;75.71
79376;BME280;68846;53.150;18.136;2024-01-15T14:10:12;98214.95;;;0.32;75.90
79376;BME280;68846;53.150;18.136;2024-01-15T14:12:40;98232.60;;;0.31;76.02
79376;BME280;68846;53.150;18.136;2024-01-15T14:15:08;98233.77;;;0.27;76.20
79376;BME280;68846;53.150;18.136;2024-01-15T14:17:37;98240.60;;;0.21;76.75
79376;BME280;68846;53.150;18.136;2024-01-15T14:20:06;98246.89;;;0.12;77.01
79376;BME280;68846;53.150;18.136;2024-01-15T14:22:34;98242.46;;;0.04;76.71
79376;BME280;68846;53.150;18.136;2024-01-15T14:25:02;98245.84;;;-0.01;76.94
79376;BME280;68846;53.150;18.136;2024-01-15T14:27:30;98242.17;;;-0.05;76.72
79376;BME280;68846;53.150;18.136;2024-01-15T14:29:58;98241.25;;;-0.08;76.65
79376;BME280;68846;53.150;18.136;2024-01-15T14:32:26;98248.67;;;-0.10;76.48
79376;BME280;68846;53.150;18.136;2024-01-15T14:34:53;98244.85;;;-0.11;76.54
79376;BME280;68846;53.150;18.136;2024-01-15T14:37:21;98258.14;;;-0.13;75.80
79376;BME280;68846;53.150;18.136;2024-01-15T14:39:50;98257.40;;;-0.16;75.99
79376;BME280;68846;53.150;18.136;2024-01-15T14:42:18;98251.81;;;-0.19;76.48
79376;BME280;68846;53.150;18.136;2024-01-15T14:44:46;98265.62;;;-0.22;76.15
79376;BME280;68846;53.150;18.136;2024-01-15T14:47:14;98264.52;;;-0.25;76.43
79376;BME280;68846;53.150;18.136;2024-01-15T14:49:42;98258.96;;;-0.27;76.06
79376;BME280;68846;53.150;18.136;2024-01-15T14:52:10;98271.58;;;-0.28;76.41
79376;BME280;68846;53.150;18.136;2024-01-15T14:54:38;98275.04;;;-0.29;76.21
79376;BME280;68846;53.150;18.136;2024-01-15T14:57:07;98279.54;;;-0.29;75.93
79376;BME280;68846;53.150;18.136;2024-01-15T14:59:36;98270.88;;;-0.30;76.09
79376;BME280;68846;53.150;18.136;2024-01-15T15:02:04;98269.84;;;-0.30;76.05
79376;BME280;68846;53.150;18.136;2024-01-15T15:04:32;98276.09;;;-0.28;76.16